Terminal Aerodrome Forecast
Issued by NWS

Home | Current Version | Previous Version | Text Only | Print | Product List | Glossary On
Versions: 1 2 3 4 5 6 7 8 9 10 11 12 13 14 15 16 17 18 19 20 21 22 23 24 25 26 27 28 29
000
FTUS46 KLOX 281400 AAA
TAFLAX
TAF AMD
KLAX 281450Z 2815/0118 28008KT P6SM SCT030 SCT180
      TEMPO 2815/2817 BKN030
     FM281900 27015KT P6SM VCSH BKN025 OVC040
     FM282200 27018G25KT P6SM -SHRA BKN025 OVC035
     FM010300 28012KT 5SM -SHRA VCTS SCT015CB OVC025
     FM010800 VRB03KT 5SM -SHRA VCTS SCT015CB OVC025
     FM011500 VRB03KT P6SM VCSH SCT025 BKN035=

USA.gov is the U.S. government's official web portal to all federal, state and local government web resources and services.